createdAt,value
2023-01-20T00:01:47.792Z,33.50
2023-01-20T00:04:15.193Z,35.95
2023-01-20T00:06:41.685Z,33.80
2023-01-20T00:09:08.120Z,35.22
2023-01-20T00:11:34.556Z,35.40
2023-01-20T00:14:02.245Z,34.78
2023-01-20T00:16:31.758Z,38.47
2023-01-20T00:18:58.498Z,36.67
2023-01-20T00:21:24.949Z,40.47
2023-01-20T00:23:51.544Z,39.63
2023-01-20T00:26:21.998Z,40.42
2023-01-20T00:28:50.002Z,40.45
2023-01-20T00:31:25.839Z,38.78
2023-01-20T00:33:54.924Z,40.17
2023-01-20T00:36:22.847Z,37.38
2023-01-20T00:38:49.497Z,42.60
2023-01-20T00:41:16.971Z,44.72
2023-01-20T00:43:43.685Z,41.40
2023-01-20T00:46:11.065Z,43.25
2023-01-20T00:48:37.742Z,40.13
2023-01-20T00:51:06.261Z,43.58
2023-01-20T00:53:32.722Z,42.35
2023-01-20T00:55:59.177Z,43.60
2023-01-20T00:58:26.189Z,48.33
2023-01-20T01:00:55.147Z,44.15
2023-01-20T01:03:22.444Z,40.55
2023-01-20T01:05:48.879Z,41.65
2023-01-20T01:08:15.349Z,41.88
2023-01-20T01:10:41.815Z,42.92
2023-01-20T01:13:08.917Z,40.88
2023-01-20T01:15:35.802Z,40.22
2023-01-20T01:18:02.769Z,43.78
2023-01-20T01:20:29.227Z,42.10
2023-01-20T01:22:56.217Z,46.20
2023-01-20T01:25:22.713Z,43.67
2023-01-20T01:27:49.159Z,45.28
2023-01-20T01:30:15.593Z,41.83
2023-01-20T01:32:42.122Z,42.65
2023-01-20T01:35:08.940Z,43.45
2023-01-20T01:37:35.803Z,47.72
2023-01-20T01:40:02.317Z,41.88
2023-01-20T01:42:28.750Z,41.60
2023-01-20T01:45:10.462Z,44.22
2023-01-20T01:47:40.216Z,47.95
2023-01-20T01:50:11.233Z,42.55
2023-01-20T01:52:41.305Z,47.88
2023-01-20T01:55:08.436Z,41.05
2023-01-20T01:57:35.560Z,43.35
2023-01-20T02:00:04.160Z,45.60
2023-01-20T02:02:40.158Z,45.25
2023-01-20T02:05:07.002Z,48.63
2023-01-20T02:07:34.139Z,48.35
2023-01-20T02:10:01.619Z,44.10
2023-01-20T02:12:29.168Z,43.85
2023-01-20T02:14:59.005Z,46.20
2023-01-20T02:17:43.802Z,44.55
2023-01-20T02:20:47.826Z,39.22
2023-01-20T02:23:25.392Z,44.13
2023-01-20T02:26:30.524Z,43.58
2023-01-20T02:29:08.663Z,42.88
2023-01-20T02:31:56.827Z,45.75
2023-01-20T02:34:32.892Z,50.88
2023-01-20T02:37:06.413Z,46.45
2023-01-20T02:40:05.928Z,48.72
2023-01-20T02:42:42.435Z,45.17
2023-01-20T02:45:23.830Z,43.25
2023-01-20T02:48:05.562Z,48.05
2023-01-20T02:50:42.953Z,45.15
2023-01-20T02:53:12.525Z,45.03
2023-01-20T02:55:44.115Z,44.70
2023-01-20T02:58:18.029Z,47.17
2023-01-20T03:03:18.066Z,46.15
2023-01-20T03:05:54.651Z,46.25
2023-01-20T03:08:24.980Z,51.40
2023-01-20T03:10:54.513Z,49.35
2023-01-20T03:13:36.938Z,54.63
2023-01-20T03:16:09.748Z,47.35
2023-01-20T03:18:37.683Z,47.85
2023-01-20T03:21:06.970Z,50.17
2023-01-20T03:23:35.897Z,49.03
2023-01-20T03:26:06.898Z,46.30
2023-01-20T03:28:33.481Z,49.63
2023-01-20T03:31:02.664Z,44.97
2023-01-20T03:33:29.229Z,44.22
2023-01-20T03:35:55.748Z,48.08
2023-01-20T03:38:22.275Z,45.78
2023-01-20T03:41:00.419Z,47.97
2023-01-20T03:43:42.840Z,47.35
2023-01-20T03:46:19.291Z,54.60
2023-01-20T03:49:02.376Z,46.95
2023-01-20T03:51:43.284Z,48.60
2023-01-20T03:54:12.394Z,45.20
2023-01-20T03:56:49.451Z,47.72
2023-01-20T03:59:20.050Z,45.92
2023-01-20T04:01:47.055Z,42.83
2023-01-20T04:04:18.209Z,50.63
2023-01-20T04:06:46.073Z,49.53
2023-01-20T04:09:23.403Z,47.17
2023-01-20T04:11:51.274Z,50.88
2023-01-20T04:14:17.948Z,43.72
2023-01-20T04:16:51.890Z,50.42
2023-01-20T04:19:18.475Z,47.53
2023-01-20T04:21:50.033Z,49.97
2023-01-20T04:24:25.239Z,47.55
2023-01-20T04:26:51.806Z,45.92
2023-01-20T04:29:18.280Z,50.55
2023-01-20T04:31:44.779Z,51.08
2023-01-20T04:34:15.339Z,49.78
2023-01-20T04:36:42.679Z,47.90
2023-01-20T04:39:09.243Z,49.15
2023-01-20T04:41:35.685Z,48.17
2023-01-20T04:44:02.171Z,45.17
2023-01-20T04:46:28.627Z,49.72
2023-01-20T04:48:55.078Z,50.72
2023-01-20T04:51:21.529Z,46.75
2023-01-20T04:53:47.958Z,46.65
2023-01-20T04:56:15.475Z,47.22
2023-01-20T04:58:42.684Z,50.75
2023-01-20T05:01:09.654Z,50.75
2023-01-20T05:03:36.471Z,46.40
2023-01-20T05:06:03.378Z,48.13
2023-01-20T05:08:29.831Z,46.88
2023-01-20T05:10:56.268Z,50.40
2023-01-20T05:13:22.770Z,51.03
2023-01-20T05:15:49.391Z,48.40
2023-01-20T05:18:16.015Z,42.13
2023-01-20T05:20:45.919Z,45.45
2023-01-20T05:23:12.547Z,46.03
2023-01-20T05:25:39.391Z,45.17
2023-01-20T05:28:06.283Z,45.47
2023-01-20T05:30:33.062Z,48.42
2023-01-20T05:32:59.592Z,44.95
2023-01-20T05:35:26.182Z,45.08
2023-01-20T05:37:54.419Z,47.53
2023-01-20T05:40:21.595Z,45.47
2023-01-20T05:42:48.028Z,49.42
2023-01-20T05:45:14.747Z,50.13
2023-01-20T05:47:41.326Z,48.65
2023-01-20T05:50:08.326Z,45.58
2023-01-20T05:52:34.774Z,44.33
2023-01-20T05:55:01.200Z,43.70
2023-01-20T05:57:27.604Z,44.28
2023-01-20T05:59:55.613Z,50.22
2023-01-20T06:02:22.159Z,45.75
2023-01-20T06:04:49.472Z,45.83
2023-01-20T06:07:15.963Z,46.03
2023-01-20T06:09:42.365Z,41.95
2023-01-20T06:12:08.970Z,43.90
2023-01-20T06:14:35.452Z,44.55
2023-01-20T06:17:01.896Z,44.83
2023-01-20T06:19:28.310Z,43.35
2023-01-20T06:21:54.766Z,42.83
2023-01-20T06:24:21.208Z,46.78
2023-01-20T06:26:50.747Z,46.15
2023-01-20T06:29:17.235Z,47.25
2023-01-20T06:31:44.753Z,45.10
2023-01-20T06:34:11.975Z,41.83
2023-01-20T06:36:38.771Z,41.22
2023-01-20T06:39:05.463Z,47.08
2023-01-20T06:41:32.011Z,43.90
2023-01-20T06:43:58.457Z,47.40
2023-01-20T06:46:24.955Z,43.22
2023-01-20T06:48:51.589Z,46.53
2023-01-20T06:51:21.082Z,45.10
2023-01-20T06:53:47.582Z,46.03
2023-01-20T06:56:15.318Z,44.33
2023-01-20T06:58:42.618Z,45.95
2023-01-20T07:01:27.192Z,45.10
2023-01-20T07:03:54.238Z,47.85
2023-01-20T07:06:26.298Z,44.95
2023-01-20T07:08:53.194Z,39.92
2023-01-20T07:11:19.700Z,41.97
2023-01-20T07:13:46.257Z,42.33
2023-01-20T07:16:15.554Z,43.95
2023-01-20T07:18:43.532Z,44.55
2023-01-20T07:21:11.623Z,41.53
2023-01-20T07:23:38.062Z,41.97
2023-01-20T07:26:09.478Z,44.38
2023-01-20T07:28:36.839Z,47.92
2023-01-20T07:31:12.247Z,46.38
2023-01-20T07:33:39.332Z,47.40
2023-01-20T07:36:07.783Z,46.00
2023-01-20T07:38:34.742Z,44.22
2023-01-20T07:41:04.939Z,46.78
2023-01-20T07:43:32.468Z,43.20
2023-01-20T07:46:00.936Z,46.22
2023-01-20T07:48:29.820Z,40.22
2023-01-20T07:51:02.581Z,41.70
2023-01-20T07:53:30.295Z,42.60
2023-01-20T07:56:00.773Z,44.35
2023-01-20T07:58:27.763Z,46.65
2023-01-20T08:00:54.383Z,44.20
2023-01-20T08:03:20.867Z,46.20
2023-01-20T08:05:47.606Z,49.08
2023-01-20T08:08:14.064Z,47.70
2023-01-20T08:10:40.722Z,49.55
2023-01-20T08:13:07.173Z,45.38
2023-01-20T08:15:33.555Z,46.63
2023-01-20T08:18:00.301Z,47.38
2023-01-20T08:20:27.045Z,48.58
2023-01-20T08:22:53.512Z,47.97
2023-01-20T08:25:19.939Z,49.22
2023-01-20T08:27:48.434Z,44.88
2023-01-20T08:30:15.048Z,46.75
2023-01-20T08:32:41.516Z,43.08
2023-01-20T08:35:08.284Z,45.75
2023-01-20T08:37:36.993Z,42.83
2023-01-20T08:40:09.159Z,46.58
2023-01-20T08:42:39.247Z,45.72
2023-01-20T08:45:07.670Z,48.40
2023-01-20T08:47:46.086Z,43.30
2023-01-20T08:50:14.835Z,49.53
2023-01-20T08:52:42.061Z,43.17
2023-01-20T08:55:09.263Z,38.30
2023-01-20T08:57:35.847Z,46.13
2023-01-20T09:00:05.382Z,43.40
2023-01-20T09:02:32.017Z,43.63
2023-01-20T09:04:58.831Z,41.58
2023-01-20T09:07:26.872Z,41.75
2023-01-20T09:09:53.308Z,42.80
2023-01-20T09:12:20.697Z,40.33
2023-01-20T09:14:47.299Z,43.08
2023-01-20T09:17:14.676Z,39.97
2023-01-20T09:19:41.130Z,43.78
2023-01-20T09:22:07.615Z,44.45
2023-01-20T09:24:34.148Z,48.35
2023-01-20T09:27:00.569Z,43.90
2023-01-20T09:29:27.320Z,41.35
2023-01-20T09:31:58.051Z,42.03
2023-01-20T09:34:27.338Z,44.63
2023-01-20T09:36:58.549Z,44.80
2023-01-20T09:39:43.388Z,45.10
2023-01-20T09:43:13.310Z,44.30
2023-01-20T09:46:20.984Z,44.10
2023-01-20T09:49:45.272Z,43.80
2023-01-20T09:52:40.817Z,43.92
2023-01-20T09:55:17.107Z,44.55
2023-01-20T09:57:50.718Z,39.88
2023-01-20T10:00:23.645Z,43.42
2023-01-20T10:02:57.965Z,33.25
2023-01-20T10:05:32.910Z,35.75
2023-01-20T10:08:12.951Z,40.53
2023-01-20T10:10:53.898Z,41.70
2023-01-20T10:13:31.468Z,39.35
2023-01-20T10:16:02.093Z,40.90
2023-01-20T10:18:54.427Z,39.65
2023-01-20T10:21:37.791Z,39.05
2023-01-20T10:24:09.425Z,39.33
2023-01-20T10:26:59.109Z,37.85
2023-01-20T10:29:35.075Z,37.47
2023-01-20T10:32:04.074Z,38.88
2023-01-20T10:34:40.706Z,36.30
2023-01-20T10:37:10.377Z,34.03
2023-01-20T10:39:50.626Z,35.40
2023-01-20T10:42:18.872Z,34.60
2023-01-20T10:44:47.303Z,33.20
2023-01-20T10:47:24.206Z,34.10
2023-01-20T10:50:30.845Z,32.92
2023-01-20T10:53:33.530Z,34.00
2023-01-20T10:56:21.352Z,37.42
2023-01-20T10:58:47.884Z,34.85
2023-01-20T11:01:18.967Z,33.28
2023-01-20T11:03:48.340Z,32.28
2023-01-20T11:06:26.346Z,28.38
2023-01-20T11:08:53.805Z,30.85
2023-01-20T11:11:25.616Z,32.20
2023-01-20T11:13:53.173Z,30.80
2023-01-20T11:16:24.702Z,32.80
2023-01-20T11:18:57.845Z,26.00
2023-01-20T11:21:26.313Z,29.08
2023-01-20T11:23:57.703Z,29.42
2023-01-20T11:26:28.272Z,28.45
2023-01-20T11:29:24.141Z,29.00
2023-01-20T11:31:53.369Z,29.67
2023-01-20T11:34:24.201Z,31.60
2023-01-20T11:37:11.544Z,28.17
2023-01-20T11:39:58.039Z,26.35
2023-01-20T11:42:27.370Z,28.88
2023-01-20T11:45:20.218Z,31.10
2023-01-20T11:48:00.361Z,27.08
2023-01-20T11:50:39.465Z,25.83
2023-01-20T11:53:17.407Z,26.23
2023-01-20T11:55:50.294Z,25.45
2023-01-20T11:58:23.016Z,27.63
2023-01-20T12:00:52.368Z,25.95
2023-01-20T12:03:35.884Z,25.35
2023-01-20T12:06:23.004Z,26.45
2023-01-20T12:09:10.511Z,25.75
2023-01-20T12:11:51.950Z,28.55
2023-01-20T12:14:25.145Z,22.63
2023-01-20T12:17:16.595Z,25.25
2023-01-20T12:20:26.719Z,25.42
2023-01-20T12:23:30.183Z,26.63
2023-01-20T12:26:05.619Z,24.35
2023-01-20T12:28:51.539Z,24.27
2023-01-20T12:31:20.232Z,22.98
2023-01-20T12:33:59.440Z,25.17
2023-01-20T12:37:03.278Z,25.58
2023-01-20T12:39:32.944Z,18.75
2023-01-20T12:42:17.827Z,29.05
2023-01-20T12:45:00.774Z,22.88
2023-01-20T12:47:33.036Z,21.65
2023-01-20T12:50:29.984Z,23.95
2023-01-20T12:53:05.395Z,22.42
2023-01-20T12:55:44.857Z,20.52
2023-01-20T12:58:17.283Z,23.13
2023-01-20T13:01:28.220Z,22.75
2023-01-20T13:04:11.412Z,24.25
2023-01-20T13:06:58.057Z,23.60
2023-01-20T13:09:46.352Z,22.63
2023-01-20T13:12:33.993Z,20.83
2023-01-20T13:15:28.169Z,25.65
2023-01-20T13:18:16.612Z,23.10
2023-01-20T13:20:45.494Z,23.80
2023-01-20T13:23:20.341Z,22.20
2023-01-20T13:25:47.537Z,23.30
2023-01-20T13:28:23.722Z,25.50
2023-01-20T13:30:53.998Z,22.33
2023-01-20T13:33:35.876Z,20.52
2023-01-20T13:36:18.727Z,19.92
2023-01-20T13:38:46.781Z,21.48
2023-01-20T13:41:48.632Z,21.35
2023-01-20T13:44:42.598Z,20.75
2023-01-20T13:47:10.815Z,24.05
2023-01-20T13:49:50.158Z,24.42
2023-01-20T13:53:05.698Z,19.67
2023-01-20T13:55:41.001Z,19.50
2023-01-20T13:58:19.250Z,23.08
2023-01-20T14:00:48.487Z,21.15
2023-01-20T14:03:23.754Z,19.65
2023-01-20T14:05:54.425Z,20.27
2023-01-20T14:08:22.546Z,20.67
2023-01-20T14:10:49.440Z,22.17
2023-01-20T14:13:24.731Z,19.52
2023-01-20T14:15:55.725Z,22.10
2023-01-20T14:18:25.094Z,21.23
2023-01-20T14:20:59.775Z,19.33
2023-01-20T14:23:35.265Z,17.70
2023-01-20T14:26:05.881Z,17.30
2023-01-20T14:28:33.231Z,21.70
2023-01-20T14:31:25.436Z,19.77
2023-01-20T14:34:24.125Z,20.58
2023-01-20T14:36:51.531Z,21.25
2023-01-20T14:39:23.848Z,19.33
2023-01-20T14:42:20.694Z,20.67
2023-01-20T14:44:48.880Z,18.65
2023-01-20T14:47:15.898Z,22.33
2023-01-20T14:49:43.505Z,17.92
2023-01-20T14:52:21.662Z,21.60
2023-01-20T14:54:51.666Z,19.73
2023-01-20T14:57:29.146Z,18.77
2023-01-20T15:00:15.329Z,19.42
2023-01-20T15:03:01.039Z,18.65
2023-01-20T15:05:35.000Z,18.08
2023-01-20T15:08:26.252Z,20.05
2023-01-20T15:11:21.208Z,19.58
2023-01-20T15:13:53.621Z,17.85
2023-01-20T15:16:26.515Z,21.08
2023-01-20T15:19:18.535Z,18.38
2023-01-20T15:21:49.945Z,21.58
2023-01-20T15:24:20.750Z,21.55
2023-01-20T15:26:49.655Z,20.25
2023-01-20T15:29:27.649Z,21.85
2023-01-20T15:31:56.460Z,19.00
2023-01-20T15:34:24.163Z,19.80
2023-01-20T15:36:51.864Z,20.38
2023-01-20T15:39:20.666Z,18.35
2023-01-20T15:41:48.644Z,19.42
2023-01-20T15:44:15.352Z,17.60
2023-01-20T15:46:41.787Z,19.58
2023-01-20T15:49:14.735Z,17.95
2023-01-20T15:51:42.520Z,19.00
2023-01-20T15:54:09.333Z,18.00
2023-01-20T15:56:38.768Z,20.05
2023-01-20T15:59:16.587Z,19.80
2023-01-20T16:01:46.925Z,20.17
2023-01-20T16:04:13.416Z,22.25
2023-01-20T16:06:40.024Z,19.23
2023-01-20T16:09:23.728Z,17.70
2023-01-20T16:11:50.122Z,19.15
2023-01-20T16:14:16.573Z,19.45
2023-01-20T16:16:43.047Z,17.60
2023-01-20T16:19:13.464Z,20.40
2023-01-20T16:21:40.004Z,20.70
2023-01-20T16:24:07.053Z,20.38
2023-01-20T16:26:34.909Z,21.85
2023-01-20T16:29:01.345Z,27.17
2023-01-20T16:31:28.341Z,47.50
2023-01-20T16:33:55.739Z,66.57
2023-01-20T16:36:23.689Z,61.40
2023-01-20T16:38:51.098Z,63.72
2023-01-20T16:41:23.395Z,58.58
2023-01-20T16:43:51.313Z,59.20
2023-01-20T16:46:23.694Z,56.42
2023-01-20T16:48:50.530Z,56.33
2023-01-20T16:51:26.553Z,54.78
2023-01-20T16:53:54.291Z,55.28
2023-01-20T16:56:29.043Z,51.58
2023-01-20T16:59:01.361Z,46.50
2023-01-20T17:01:30.044Z,47.72
2023-01-20T17:03:59.124Z,47.53
2023-01-20T17:06:28.520Z,45.60
2023-01-20T17:08:56.966Z,42.85
2023-01-20T17:11:26.302Z,40.67
2023-01-20T17:13:53.703Z,40.55
2023-01-20T17:16:20.936Z,39.53
2023-01-20T17:18:51.571Z,41.85
2023-01-20T17:21:22.004Z,42.88
2023-01-20T17:23:52.259Z,45.30
2023-01-20T17:26:20.156Z,45.22
2023-01-20T17:28:47.001Z,42.58
2023-01-20T17:31:13.965Z,44.10
2023-01-20T17:33:45.523Z,45.20
2023-01-20T17:36:12.086Z,46.45
2023-01-20T17:38:41.697Z,46.25
2023-01-20T17:41:08.661Z,48.22
2023-01-20T17:43:40.498Z,46.72
2023-01-20T17:46:18.876Z,46.70
2023-01-20T17:48:46.075Z,47.75
2023-01-20T17:51:26.475Z,48.47
2023-01-20T17:53:53.726Z,44.92
2023-01-20T17:56:22.159Z,45.33
2023-01-20T17:58:50.388Z,44.88
2023-01-20T18:01:28.577Z,42.85
2023-01-20T18:04:00.433Z,42.75
2023-01-20T18:06:29.089Z,39.72
2023-01-20T18:08:59.306Z,39.80
2023-01-20T18:11:27.650Z,36.67
2023-01-20T18:13:56.486Z,38.90
2023-01-20T18:16:26.471Z,37.13
2023-01-20T18:18:58.418Z,38.17
2023-01-20T18:21:28.885Z,36.30
2023-01-20T18:23:56.236Z,38.90
2023-01-20T18:26:24.582Z,34.25
2023-01-20T18:28:55.368Z,36.28
2023-01-20T18:31:25.839Z,35.13
2023-01-20T18:33:57.094Z,31.73
2023-01-20T18:36:29.299Z,31.58
2023-01-20T18:39:01.388Z,34.95
2023-01-20T18:41:30.763Z,36.00
2023-01-20T18:43:57.718Z,35.65
2023-01-20T18:46:25.995Z,33.92
2023-01-20T18:48:54.551Z,38.92
2023-01-20T18:51:24.345Z,36.90
2023-01-20T18:54:02.032Z,33.63
2023-01-20T18:56:29.718Z,36.88
2023-01-20T18:58:56.957Z,36.05
2023-01-20T19:01:26.008Z,37.58
2023-01-20T19:03:53.242Z,38.28
2023-01-20T19:06:25.072Z,38.72
2023-01-20T19:08:52.522Z,35.00
2023-01-20T19:11:22.779Z,42.35
2023-01-20T19:13:50.993Z,42.00
2023-01-20T19:16:19.108Z,41.90
2023-01-20T19:18:54.242Z,38.03
2023-01-20T19:21:22.056Z,49.70
2023-01-20T19:23:50.465Z,42.33
2023-01-20T19:26:20.327Z,42.05
2023-01-20T19:28:48.481Z,44.95
2023-01-20T19:31:17.881Z,47.30
2023-01-20T19:33:48.814Z,64.18
2023-01-20T19:36:17.722Z,59.85
2023-01-20T19:38:44.986Z,58.50
2023-01-20T19:41:17.495Z,57.83
2023-01-20T19:43:44.799Z,50.13
2023-01-20T19:46:13.742Z,55.97
2023-01-20T19:48:49.405Z,52.85
2023-01-20T19:51:17.221Z,52.75
2023-01-20T19:53:44.078Z,46.38
2023-01-20T19:56:15.810Z,46.28
2023-01-20T19:58:43.106Z,44.00
2023-01-20T20:01:17.060Z,44.58
2023-01-20T20:03:44.188Z,41.92
2023-01-20T20:06:31.922Z,41.80
2023-01-20T20:09:03.619Z,43.35
2023-01-20T20:11:31.200Z,44.08
2023-01-20T20:13:59.762Z,42.28
2023-01-20T20:16:29.149Z,41.90
2023-01-20T20:18:56.564Z,46.13
2023-01-20T20:21:23.851Z,42.80
2023-01-20T20:23:51.747Z,40.33
2023-01-20T20:26:19.286Z,45.30
2023-01-20T20:28:46.198Z,47.70
2023-01-20T20:31:12.718Z,45.97
2023-01-20T20:33:39.245Z,43.22
2023-01-20T20:36:07.515Z,56.13
2023-01-20T20:38:36.594Z,52.88
2023-01-20T20:41:08.820Z,52.33
2023-01-20T20:43:36.199Z,50.72
2023-01-20T20:46:04.223Z,49.38
2023-01-20T20:48:31.272Z,47.67
2023-01-20T20:51:03.846Z,47.72
2023-01-20T20:53:30.436Z,45.92
2023-01-20T20:55:59.207Z,45.95
2023-01-20T20:58:26.111Z,44.88
2023-01-20T21:00:52.558Z,46.95
2023-01-20T21:03:19.621Z,44.58
2023-01-20T21:05:56.643Z,45.22
2023-01-20T21:08:25.312Z,44.55
2023-01-20T21:10:51.954Z,48.20
2023-01-20T21:13:18.704Z,54.17
2023-01-20T21:15:54.843Z,48.28
2023-01-20T21:18:21.323Z,46.05
2023-01-20T21:20:57.079Z,46.28
2023-01-20T21:23:24.272Z,47.28
2023-01-20T21:25:50.776Z,44.50
2023-01-20T21:28:17.224Z,48.38
2023-01-20T21:30:43.720Z,47.13
2023-01-20T21:33:15.353Z,44.42
2023-01-20T21:35:41.856Z,48.85
2023-01-20T21:38:08.359Z,45.50
2023-01-20T21:40:34.977Z,43.47
2023-01-20T21:43:20.120Z,47.13
2023-01-20T21:45:56.655Z,43.83
2023-01-20T21:48:42.032Z,48.70
2023-01-20T21:51:30.170Z,49.60
2023-01-20T21:53:56.574Z,46.83
2023-01-20T21:56:23.010Z,50.60
2023-01-20T21:58:49.487Z,45.88
2023-01-20T22:01:15.939Z,49.40
2023-01-20T22:03:42.446Z,50.72
2023-01-20T22:06:09.022Z,49.85
2023-01-20T22:08:35.461Z,48.17
2023-01-20T22:11:01.869Z,48.03
2023-01-20T22:13:28.506Z,50.33
2023-01-20T22:15:55.134Z,45.33
2023-01-20T22:18:21.598Z,50.10
2023-01-20T22:20:48.028Z,47.47
2023-01-20T22:23:14.472Z,52.20
2023-01-20T22:25:40.948Z,47.75
2023-01-20T22:28:07.408Z,46.00
2023-01-20T22:30:33.931Z,50.25
2023-01-20T22:33:00.475Z,49.88
2023-01-20T22:35:26.947Z,53.67
2023-01-20T22:37:53.434Z,52.97
2023-01-20T22:40:19.855Z,58.10
2023-01-20T22:42:46.304Z,54.92
2023-01-20T22:45:12.737Z,53.55
2023-01-20T22:47:39.121Z,55.42
2023-01-20T22:50:07.828Z,53.53
2023-01-20T22:52:34.268Z,54.00
2023-01-20T22:55:00.934Z,52.42
2023-01-20T22:57:29.971Z,53.13
2023-01-20T22:59:56.381Z,50.03
2023-01-20T23:02:22.900Z,53.05
2023-01-20T23:04:49.381Z,54.47
2023-01-20T23:07:15.815Z,51.88
2023-01-20T23:09:42.263Z,53.03
2023-01-20T23:12:08.665Z,50.63
2023-01-20T23:14:53.842Z,47.58
2023-01-20T23:17:20.274Z,46.55
2023-01-20T23:19:46.673Z,45.22
2023-01-20T23:22:13.107Z,46.90
2023-01-20T23:24:39.550Z,44.90
2023-01-20T23:27:05.991Z,44.72
2023-01-20T23:29:33.247Z,44.42
2023-01-20T23:31:59.714Z,45.28
2023-01-20T23:34:26.243Z,46.05
2023-01-20T23:36:52.702Z,43.72
2023-01-20T23:39:19.228Z,47.78
2023-01-20T23:41:45.668Z,40.75
2023-01-20T23:44:12.230Z,44.85
2023-01-20T23:46:38.642Z,43.03
2023-01-20T23:49:05.119Z,45.58
2023-01-20T23:51:31.621Z,45.90
2023-01-20T23:53:58.248Z,46.17
2023-01-20T23:56:25.344Z,46.35
2023-01-20T23:58:52.219Z,42.70
